Time;durP1;ratioP1;P1;durP2;ratioP2;P2;SDS_P1;SDS_P2;PMS_P1;PMS_P2;Temp;Humidity;BMP_temperature;BMP_pressure;BME280_temperature;BME280_humidity;BME280_pressure;Samples;Min_cycle;Max_cycle;Signal;HPM_P1;HPM_P2
2021/07/13 18:02:52;;;;;;;;;;;;;;;;;;5193723;23;19949;-76
2021/07/13 18:05:17;;;;;;;;;;;;;;;;;;4935100;29;19926;-70
2021/07/13 18:07:43;;;;;;;;;;;;;;;;;;4945120;29;19918;-73
2021/07/13 18:10:09;;;;;;;;;;;;;;;;;;4945379;29;19931;-74
2021/07/13 18:12:37;;;;;;;;;;;;;;;;;;4933162;29;20042;-76
2021/07/13 18:15:04;;;;;;;;;;;;;;;;;;4928196;29;19919;-73
2021/07/13 18:17:32;;;;;;;;;;;;;;;;;;4922830;29;19922;-72
2021/07/13 18:19:57;;;;;;;;;;;;;;;;;;4926141;29;19915;-74
2021/07/13 18:22:22;;;;;;;;;;;;;;;;;;4927074;29;19971;-72
2021/07/13 18:24:48;;;;;;;;;;;;;;;;;;4926916;29;19915;-75
2021/07/13 18:27:13;;;;;;;;;;;;;;;;;;4917809;29;19923;-75
2021/07/13 18:29:41;;;;;;;;;;;;;;;;;;4926656;29;19965;-74
2021/07/13 18:32:09;;;;;;;;;;;;;;;;;;4926616;29;19915;-76
2021/07/13 18:34:35;;;;;;;;;;;;;;;;;;4927666;29;19915;-75
2021/07/13 18:37:00;;;;;;;;;;;;;;;;;;4927848;29;20351;-78
2021/07/13 18:39:25;;;;;;;;;;;;;;;;;;4931285;29;20373;-76
2021/07/13 18:41:51;;;;;;;;;;;;;;;;;;4939426;29;19922;-76
2021/07/13 18:44:16;;;;;;;;;;;;;;;;;;4939466;29;19914;-79
2021/07/13 18:46:41;;;;;;;;;;;;;;;;;;4939508;29;19922;-79
2021/07/13 18:49:07;;;;;;;;;;;;;;;;;;4939424;29;19918;-75
2021/07/13 18:51:32;;;;;;;;;;;;;;;;;;4939415;29;19922;-76
2021/07/13 18:53:57;;;;;;;;;;;;;;;;;;4939277;29;19918;-74
2021/07/13 18:56:23;;;;;;;;;;;;;;;;;;4932347;29;19915;-73
2021/07/13 18:58:49;;;;;;;;;;;;;;;;;;4937558;29;20417;-77
2021/07/13 19:01:14;;;;;;;;;;;;;;;;;;4939193;29;19957;-78
2021/07/13 19:03:40;;;;;;;;;;;;;;;;;;4939343;29;19918;-82
2021/07/13 19:06:06;;;;;;;;;;;;;;;;;;4939153;29;19937;-76
2021/07/13 19:08:32;;;;;;;;;;;;;;;;;;4938053;29;19915;-85
2021/07/13 19:10:58;;;;;;;;;;;;;;;;;;4939175;29;19973;-85
2021/07/13 19:13:23;;;;;;;;;;;;;;;;;;4938804;29;19921;-85
2021/07/13 19:15:48;;;;;;;;;;;;;;;;;;4938861;29;19921;-76
2021/07/13 19:18:14;;;;;;;;;;;;;;;;;;4922936;29;20366;-87
2021/07/13 19:20:41;;;;;;;;;;;;;;;;;;4920020;29;20429;-84
2021/07/13 19:23:07;;;;;;;;;;;;;;;;;;4920514;29;19968;-86
2021/07/13 19:25:32;;;;;;;;;;;;;;;;;;4920350;29;19962;-80
2021/07/13 19:27:59;;;;;;;;;;;;;;;;;;4919997;29;19919;-80
2021/07/13 19:30:24;;;;;;;;;;;;;;;;;;4918478;29;20306;-84
2021/07/13 19:32:50;;;;;;;;;;;;;;;;;;4919624;29;19943;-85
2021/07/13 19:37:40;;;;;;;;;;;;;;;;;;4919605;29;20331;-86
2021/07/13 19:40:06;;;;;;;;;;;;;;;;;;4919572;29;20392;-79
2021/07/13 19:42:31;;;;;;;;;;;;;;;;;;4919500;29;19911;-78
2021/07/13 19:44:57;;;;;;;;;;;;;;;;;;4919636;29;19958;-87
2021/07/13 19:47:23;;;;;;;;;;;;;;;;;;4919631;29;19915;-87
2021/07/13 19:49:49;;;;;;;;;;;;;;;;;;4919661;29;19918;-85
2021/07/13 19:52:14;;;;;;;;;;;;;;;;;;4918796;29;19915;-83
2021/07/13 19:54:41;;;;;;;;;;;;;;;;;;4923376;29;19938;-74
2021/07/13 19:57:06;;;;;;;;;;;;;;;;;;4927102;29;19915;-82
2021/07/13 19:59:32;;;;;;;;;;;;;;;;;;4920499;29;19915;-73
2021/07/13 20:01:58;;;;;;;;;;;;;;;;;;4950170;29;20395;-74
2021/07/13 20:04:23;;;;;;;;;;;;;;;;;;4919282;29;19923;-73
2021/07/13 20:06:50;;;;;;;;;;;;;;;;;;4920577;29;20009;-80
2021/07/13 20:09:15;;;;;;;;;;;;;;;;;;4927446;29;20006;-75
2021/07/13 20:11:41;;;;;;;;;;;;;;;;;;4917663;29;19966;-74
2021/07/13 20:14:06;;;;;;;;;;;;;;;;;;4919053;29;19921;-75
2021/07/13 20:16:34;;;;;;;;;;;;;;;;;;4918927;29;19915;-75
2021/07/13 20:19:00;;;;;;;;;;;;;;;;;;4919894;29;20006;-86
2021/07/13 20:21:28;;;;;;;;;;;;;;;;;;4922570;29;19939;-83
2021/07/13 20:23:54;;;;;;;;;;;;;;;;;;4949507;29;19919;-78
2021/07/13 20:26:22;;;;;;;;;;;;;;;;;;4919693;29;20019;-84
2021/07/13 20:28:51;;;;;;;;;;;;;;;;;;4936249;29;19918;-81
2021/07/13 20:31:20;;;;;;;;;;;;;;;;;;4936362;29;19962;-85
2021/07/13 20:33:45;;;;;;;;;;;;;;;;;;4936607;29;19914;-81
2021/07/13 20:36:19;;;;;;;;;;;;;;;;;;4937645;29;20274;-80
2021/07/13 20:38:44;;;;;;;;;;;;;;;;;;4937482;29;19961;-76
2021/07/13 20:41:10;;;;;;;;;;;;;;;;;;4937642;29;20373;-75
2021/07/13 20:43:41;;;;;;;;;;;;;;;;;;4937973;29;20285;-81
2021/07/13 20:46:08;;;;;;;;;;;;;;;;;;4936341;29;19922;-85
2021/07/13 20:48:34;;;;;;;;;;;;;;;;;;4936550;29;19961;-75
2021/07/13 20:50:59;;;;;;;;;;;;;;;;;;4937481;29;20369;-75
2021/07/13 20:53:27;;;;;;;;;;;;;;;;;;4937195;29;19925;-80
2021/07/13 20:55:57;;;;;;;;;;;;;;;;;;4936294;29;19953;-87
2021/07/13 20:58:23;;;;;;;;;;;;;;;;;;4937438;29;19919;-84
2021/07/13 21:00:49;;;;;;;;;;;;;;;;;;4936062;29;19915;-79
2021/07/13 21:03:14;;;;;;;;;;;;;;;;;;4937102;29;19926;-75
2021/07/13 21:05:40;;;;;;;;;;;;;;;;;;4937397;29;19922;-88
2021/07/13 21:08:05;;;;;;;;;;;;;;;;;;4937456;29;19910;-84
2021/07/13 21:10:31;;;;;;;;;;;;;;;;;;4937408;29;19939;-84
2021/07/13 21:12:56;;;;;;;;;;;;;;;;;;4937685;29;20009;-87
2021/07/13 21:15:22;;;;;;;;;;;;;;;;;;4937288;29;19915;-89
2021/07/13 21:17:47;;;;;;;;;;;;;;;;;;4937228;29;20362;-80
2021/07/13 21:20:12;;;;;;;;;;;;;;;;;;4937171;29;20001;-86
2021/07/13 21:22:38;;;;;;;;;;;;;;;;;;4937274;29;20374;-89
2021/07/13 21:25:05;;;;;;;;;;;;;;;;;;4937645;29;19938;-86
2021/07/13 21:27:31;;;;;;;;;;;;;;;;;;4937090;29;19962;-87
2021/07/13 21:29:56;;;;;;;;;;;;;;;;;;4937406;29;19915;-90
2021/07/13 21:32:21;;;;;;;;;;;;;;;;;;4937166;29;19970;-88
2021/07/13 21:34:49;;;;;;;;;;;;;;;;;;4935870;29;20003;-89
2021/07/13 21:37:17;;;;;;;;;;;;;;;;;;4937030;29;19918;-89
2021/07/13 21:39:43;;;;;;;;;;;;;;;;;;4937059;29;20375;-88
2021/07/13 21:42:08;;;;;;;;;;;;;;;;;;4937082;29;19914;-86
2021/07/13 21:44:33;;;;;;;;;;;;;;;;;;4937106;29;20313;-82
2021/07/13 21:46:59;;;;;;;;;;;;;;;;;;4937139;29;20372;-82
2021/07/13 21:49:28;;;;;;;;;;;;;;;;;;4936891;29;19922;-86
2021/07/13 21:51:54;;;;;;;;;;;;;;;;;;4936903;29;19911;-87
2021/07/13 21:54:19;;;;;;;;;;;;;;;;;;4935463;29;20369;-86
2021/07/13 21:56:46;;;;;;;;;;;;;;;;;;4937059;29;19970;-87
2021/07/13 21:59:11;;;;;;;;;;;;;;;;;;4936959;29;20013;-91
2021/07/13 22:01:36;;;;;;;;;;;;;;;;;;4936890;29;20021;-85
2021/07/13 22:04:02;;;;;;;;;;;;;;;;;;4935174;29;20330;-84
2021/07/13 22:06:27;;;;;;;;;;;;;;;;;;4932057;29;20425;-86
2021/07/13 22:08:53;;;;;;;;;;;;;;;;;;4931005;29;19918;-83
2021/07/13 22:11:18;;;;;;;;;;;;;;;;;;4936750;29;20354;-83
2021/07/13 22:13:43;;;;;;;;;;;;;;;;;;4936717;29;19942;-86
